sensor_id;sensor_type;location;lat;lon;timestamp;temperature;humidity
78898;DHT22;68287;44.714;37.756;2023-02-28T09:54:17;24.79;34.03
78898;DHT22;68287;44.714;37.756;2023-02-28T09:55:30;24.76;34.58
78898;DHT22;68287;44.714;37.756;2023-02-28T09:56:42;24.79;34.10
78898;DHT22;68287;44.714;37.756;2023-02-28T09:57:43;24.77;34.04
78898;DHT22;68287;44.714;37.756;2023-02-28T09:58:53;24.76;34.02
78898;DHT22;68287;44.714;37.756;2023-02-28T10:00:51;24.80;34.10
78898;DHT22;68287;44.714;37.756;2023-02-28T10:05:07;24.79;34.04
78898;DHT22;68287;44.714;37.756;2023-02-28T10:10:06;24.79;34.10
78898;DHT22;68287;44.714;37.756;2023-02-28T10:11:12;24.81;33.99
78898;DHT22;68287;44.714;37.756;2023-02-28T10:12:16;24.80;34.00
78898;DHT22;68287;44.714;37.756;2023-02-28T10:13:37;24.80;33.95
78898;DHT22;68287;44.714;37.756;2023-02-28T10:14:45;24.80;34.19
78898;DHT22;68287;44.714;37.756;2023-02-28T10:15:52;24.81;33.98
78898;DHT22;68287;44.714;37.756;2023-02-28T10:16:59;24.83;33.84
78898;DHT22;68287;44.714;37.756;2023-02-28T10:18:05;24.86;33.93
78898;DHT22;68287;44.714;37.756;2023-02-28T10:19:16;24.84;33.88
78898;DHT22;68287;44.714;37.756;2023-02-28T10:20:21;24.84;34.15
78898;DHT22;68287;44.714;37.756;2023-02-28T10:21:38;24.87;33.91
78898;DHT22;68287;44.714;37.756;2023-02-28T10:23:00;24.90;33.61
78898;DHT22;68287;44.714;37.756;2023-02-28T10:25:59;24.91;33.67
78898;DHT22;68287;44.714;37.756;2023-02-28T10:27:14;24.90;33.57
78898;DHT22;68287;44.714;37.756;2023-02-28T10:28:17;24.90;33.52
78898;DHT22;68287;44.714;37.756;2023-02-28T10:29:21;24.88;33.51
78898;DHT22;68287;44.714;37.756;2023-02-28T10:30:23;24.88;33.45
78898;DHT22;68287;44.714;37.756;2023-02-28T10:31:25;24.88;33.40
78898;DHT22;68287;44.714;37.756;2023-02-28T10:32:33;24.90;33.31
78898;DHT22;68287;44.714;37.756;2023-02-28T10:33:36;24.88;33.32
78898;DHT22;68287;44.714;37.756;2023-02-28T10:34:37;24.87;33.31
78898;DHT22;68287;44.714;37.756;2023-02-28T10:35:38;24.90;33.27
78898;DHT22;68287;44.714;37.756;2023-02-28T10:36:41;24.88;33.15
78898;DHT22;68287;44.714;37.756;2023-02-28T10:37:45;24.87;33.43
78898;DHT22;68287;44.714;37.756;2023-02-28T10:38:47;24.87;33.16
78898;DHT22;68287;44.714;37.756;2023-02-28T10:39:49;24.91;33.05
78898;DHT22;68287;44.714;37.756;2023-02-28T10:40:52;24.92;33.09
78898;DHT22;68287;44.714;37.756;2023-02-28T10:42:05;24.92;33.07
78898;DHT22;68287;44.714;37.756;2023-02-28T10:44:21;24.90;33.04
78898;DHT22;68287;44.714;37.756;2023-02-28T10:45:24;24.87;32.75
78898;DHT22;68287;44.714;37.756;2023-02-28T10:46:26;24.84;32.94
78898;DHT22;68287;44.714;37.756;2023-02-28T10:47:34;24.81;32.78
78898;DHT22;68287;44.714;37.756;2023-02-28T10:48:40;24.81;32.94
78898;DHT22;68287;44.714;37.756;2023-02-28T10:49:50;24.84;33.19
78898;DHT22;68287;44.714;37.756;2023-02-28T10:50:54;24.83;33.78
78898;DHT22;68287;44.714;37.756;2023-02-28T17:05:17;18.72;45.27
78898;DHT22;68287;44.714;37.756;2023-02-28T17:06:25;18.84;44.77
78898;DHT22;68287;44.714;37.756;2023-02-28T17:07:31;18.94;45.14
78898;DHT22;68287;44.714;37.756;2023-02-28T17:08:33;19.07;45.25
78898;DHT22;68287;44.714;37.756;2023-02-28T17:09:35;19.19;45.05
78898;DHT22;68287;44.714;37.756;2023-02-28T17:10:36;19.30;44.20
78898;DHT22;68287;44.714;37.756;2023-02-28T17:11:39;19.41;44.38
78898;DHT22;68287;44.714;37.756;2023-02-28T17:12:40;19.53;43.95
78898;DHT22;68287;44.714;37.756;2023-02-28T17:13:41;19.64;43.92
78898;DHT22;68287;44.714;37.756;2023-02-28T17:14:43;19.71;43.12
78898;DHT22;68287;44.714;37.756;2023-02-28T17:15:45;19.82;42.72
78898;DHT22;68287;44.714;37.756;2023-02-28T17:16:47;19.93;42.66
78898;DHT22;68287;44.714;37.756;2023-02-28T17:17:49;20.05;42.69
78898;DHT22;68287;44.714;37.756;2023-02-28T17:18:51;20.12;42.34
78898;DHT22;68287;44.714;37.756;2023-02-28T17:19:53;20.20;42.36
78898;DHT22;68287;44.714;37.756;2023-02-28T17:20:55;20.28;42.15
78898;DHT22;68287;44.714;37.756;2023-02-28T17:21:56;20.34;42.00
78898;DHT22;68287;44.714;37.756;2023-02-28T17:22:58;20.41;41.88
78898;DHT22;68287;44.714;37.756;2023-02-28T17:23:59;20.47;41.44
78898;DHT22;68287;44.714;37.756;2023-02-28T17:25:01;20.55;41.14
78898;DHT22;68287;44.714;37.756;2023-02-28T17:26:02;20.61;41.10
78898;DHT22;68287;44.714;37.756;2023-02-28T17:27:11;20.67;40.92
78898;DHT22;68287;44.714;37.756;2023-02-28T17:28:13;20.75;40.97
78898;DHT22;68287;44.714;37.756;2023-02-28T17:29:17;20.78;40.73
78898;DHT22;68287;44.714;37.756;2023-02-28T17:30:22;20.82;40.82
78898;DHT22;68287;44.714;37.756;2023-02-28T17:31:25;20.86;40.73
78898;DHT22;68287;44.714;37.756;2023-02-28T17:32:30;20.92;40.71
78898;DHT22;68287;44.714;37.756;2023-02-28T17:33:31;20.92;41.10
78898;DHT22;68287;44.714;37.756;2023-02-28T17:34:33;20.93;41.10
78898;DHT22;68287;44.714;37.756;2023-02-28T17:35:36;20.96;41.21
78898;DHT22;68287;44.714;37.756;2023-02-28T17:36:37;20.99;41.14
78898;DHT22;68287;44.714;37.756;2023-02-28T17:37:41;21.02;41.08
78898;DHT22;68287;44.714;37.756;2023-02-28T17:38:43;21.04;41.15
78898;DHT22;68287;44.714;37.756;2023-02-28T17:39:45;21.07;41.17
78898;DHT22;68287;44.714;37.756;2023-02-28T17:40:52;21.11;41.32
78898;DHT22;68287;44.714;37.756;2023-02-28T17:41:58;21.13;41.08
78898;DHT22;68287;44.714;37.756;2023-02-28T17:42:59;21.15;41.20
78898;DHT22;68287;44.714;37.756;2023-02-28T17:44:00;21.17;41.36
78898;DHT22;68287;44.714;37.756;2023-02-28T17:45:02;21.19;41.40
78898;DHT22;68287;44.714;37.756;2023-02-28T17:46:04;21.20;41.43
78898;DHT22;68287;44.714;37.756;2023-02-28T17:47:10;21.23;41.55
78898;DHT22;68287;44.714;37.756;2023-02-28T17:48:12;21.24;41.30
78898;DHT22;68287;44.714;37.756;2023-02-28T17:49:14;21.27;41.53
78898;DHT22;68287;44.714;37.756;2023-02-28T17:50:18;21.28;42.54
78898;DHT22;68287;44.714;37.756;2023-02-28T17:51:22;21.30;41.84
78898;DHT22;68287;44.714;37.756;2023-02-28T17:52:24;21.03;41.96
78898;DHT22;68287;44.714;37.756;2023-02-28T17:53:25;20.73;42.36
78898;DHT22;68287;44.714;37.756;2023-02-28T17:54:28;20.48;42.85
78898;DHT22;68287;44.714;37.756;2023-02-28T17:55:29;20.24;43.46
78898;DHT22;68287;44.714;37.756;2023-02-28T17:56:31;20.10;43.89
78898;DHT22;68287;44.714;37.756;2023-02-28T17:57:33;19.94;44.17
78898;DHT22;68287;44.714;37.756;2023-02-28T17:58:34;19.81;44.62
78898;DHT22;68287;44.714;37.756;2023-02-28T17:59:35;19.71;44.93
78898;DHT22;68287;44.714;37.756;2023-02-28T18:00:37;19.64;45.07
78898;DHT22;68287;44.714;37.756;2023-02-28T18:01:39;19.58;45.59
78898;DHT22;68287;44.714;37.756;2023-02-28T18:02:41;19.53;45.78
78898;DHT22;68287;44.714;37.756;2023-02-28T18:03:42;19.51;45.82
78898;DHT22;68287;44.714;37.756;2023-02-28T18:04:44;19.47;45.85
78898;DHT22;68287;44.714;37.756;2023-02-28T18:05:48;19.43;45.93
78898;DHT22;68287;44.714;37.756;2023-02-28T18:06:52;19.40;46.04
78898;DHT22;68287;44.714;37.756;2023-02-28T18:07:54;19.35;46.14
78898;DHT22;68287;44.714;37.756;2023-02-28T18:08:59;19.33;46.28
78898;DHT22;68287;44.714;37.756;2023-02-28T18:10:02;19.31;46.35
78898;DHT22;68287;44.714;37.756;2023-02-28T18:11:07;19.31;46.44
78898;DHT22;68287;44.714;37.756;2023-02-28T18:12:18;19.27;46.54
78898;DHT22;68287;44.714;37.756;2023-02-28T18:13:20;19.24;46.65
78898;DHT22;68287;44.714;37.756;2023-02-28T18:14:24;19.26;46.74
78898;DHT22;68287;44.714;37.756;2023-02-28T18:15:26;19.23;46.78
78898;DHT22;68287;44.714;37.756;2023-02-28T18:16:27;19.22;46.82
78898;DHT22;68287;44.714;37.756;2023-02-28T18:17:30;19.22;46.94
78898;DHT22;68287;44.714;37.756;2023-02-28T18:18:35;19.23;47.02
78898;DHT22;68287;44.714;37.756;2023-02-28T18:19:38;19.22;47.00
78898;DHT22;68287;44.714;37.756;2023-02-28T18:20:40;19.22;47.06
78898;DHT22;68287;44.714;37.756;2023-02-28T18:21:43;19.22;47.08
78898;DHT22;68287;44.714;37.756;2023-02-28T18:22:45;19.19;47.11
78898;DHT22;68287;44.714;37.756;2023-02-28T18:23:47;19.19;47.11
78898;DHT22;68287;44.714;37.756;2023-02-28T18:24:50;19.19;47.19
78898;DHT22;68287;44.714;37.756;2023-02-28T18:25:51;19.19;47.15
78898;DHT22;68287;44.714;37.756;2023-02-28T18:26:54;19.20;47.19
78898;DHT22;68287;44.714;37.756;2023-02-28T18:27:55;19.20;47.22
78898;DHT22;68287;44.714;37.756;2023-02-28T18:29:00;19.19;47.29
78898;DHT22;68287;44.714;37.756;2023-02-28T18:30:02;19.19;47.23
78898;DHT22;68287;44.714;37.756;2023-02-28T18:31:06;19.20;47.36
78898;DHT22;68287;44.714;37.756;2023-02-28T18:32:09;19.20;47.39
78898;DHT22;68287;44.714;37.756;2023-02-28T18:33:16;19.19;47.43
78898;DHT22;68287;44.714;37.756;2023-02-28T18:34:18;19.17;47.43
78898;DHT22;68287;44.714;37.756;2023-02-28T18:35:22;19.19;47.38
78898;DHT22;68287;44.714;37.756;2023-02-28T18:36:36;19.19;47.42
78898;DHT22;68287;44.714;37.756;2023-02-28T18:37:41;19.19;47.48
78898;DHT22;68287;44.714;37.756;2023-02-28T18:38:43;19.17;47.43
78898;DHT22;68287;44.714;37.756;2023-02-28T18:39:46;19.17;47.52
78898;DHT22;68287;44.714;37.756;2023-02-28T18:40:55;19.17;47.56
78898;DHT22;68287;44.714;37.756;2023-02-28T18:41:57;19.17;47.55
78898;DHT22;68287;44.714;37.756;2023-02-28T18:42:59;19.19;47.58
78898;DHT22;68287;44.714;37.756;2023-02-28T18:44:01;19.20;47.65
78898;DHT22;68287;44.714;37.756;2023-02-28T18:45:03;19.17;47.59
78898;DHT22;68287;44.714;37.756;2023-02-28T18:46:08;19.17;47.69
78898;DHT22;68287;44.714;37.756;2023-02-28T18:47:10;19.19;47.68
78898;DHT22;68287;44.714;37.756;2023-02-28T18:48:12;19.20;47.78
78898;DHT22;68287;44.714;37.756;2023-02-28T18:49:16;19.22;47.79
78898;DHT22;68287;44.714;37.756;2023-02-28T18:50:18;19.26;47.80
78898;DHT22;68287;44.714;37.756;2023-02-28T18:51:22;19.27;47.88
78898;DHT22;68287;44.714;37.756;2023-02-28T18:52:24;19.28;47.82
78898;DHT22;68287;44.714;37.756;2023-02-28T18:53:27;19.30;47.79
78898;DHT22;68287;44.714;37.756;2023-02-28T18:54:29;19.31;47.86
78898;DHT22;68287;44.714;37.756;2023-02-28T18:55:31;19.34;47.84
78898;DHT22;68287;44.714;37.756;2023-02-28T18:56:32;19.34;47.86
78898;DHT22;68287;44.714;37.756;2023-02-28T18:57:34;19.34;47.84
78898;DHT22;68287;44.714;37.756;2023-02-28T18:58:38;19.34;47.82
78898;DHT22;68287;44.714;37.756;2023-02-28T19:00:06;19.37;47.62
78898;DHT22;68287;44.714;37.756;2023-02-28T19:01:27;19.31;47.54
78898;DHT22;68287;44.714;37.756;2023-02-28T19:02:38;19.33;47.47
78898;DHT22;68287;44.714;37.756;2023-02-28T19:03:40;19.27;47.50
78898;DHT22;68287;44.714;37.756;2023-02-28T19:04:41;19.24;47.56
78898;DHT22;68287;44.714;37.756;2023-02-28T19:05:43;19.24;47.63
78898;DHT22;68287;44.714;37.756;2023-02-28T19:06:44;19.20;47.61
78898;DHT22;68287;44.714;37.756;2023-02-28T19:07:46;19.22;47.64
78898;DHT22;68287;44.714;37.756;2023-02-28T19:08:55;19.22;47.58
78898;DHT22;68287;44.714;37.756;2023-02-28T19:09:56;19.20;47.66
78898;DHT22;68287;44.714;37.756;2023-02-28T19:10:58;19.19;47.70
78898;DHT22;68287;44.714;37.756;2023-02-28T19:11:59;19.20;47.83
78898;DHT22;68287;44.714;37.756;2023-02-28T19:13:01;19.20;47.81
78898;DHT22;68287;44.714;37.756;2023-02-28T19:14:04;19.17;47.84
78898;DHT22;68287;44.714;37.756;2023-02-28T19:15:06;19.19;47.90
78898;DHT22;68287;44.714;37.756;2023-02-28T19:16:09;19.20;47.92
78898;DHT22;68287;44.714;37.756;2023-02-28T19:17:11;19.19;47.98
78898;DHT22;68287;44.714;37.756;2023-02-28T19:18:14;19.17;48.00
78898;DHT22;68287;44.714;37.756;2023-02-28T19:19:16;19.20;48.00
78898;DHT22;68287;44.714;37.756;2023-02-28T19:20:17;19.19;48.03
78898;DHT22;68287;44.714;37.756;2023-02-28T19:21:21;19.17;48.02
78898;DHT22;68287;44.714;37.756;2023-02-28T19:22:23;19.20;48.02
78898;DHT22;68287;44.714;37.756;2023-02-28T19:23:26;19.19;48.02
78898;DHT22;68287;44.714;37.756;2023-02-28T19:24:28;19.17;48.04
78898;DHT22;68287;44.714;37.756;2023-02-28T19:25:30;19.17;48.05
78898;DHT22;68287;44.714;37.756;2023-02-28T19:26:31;19.16;47.96
78898;DHT22;68287;44.714;37.756;2023-02-28T19:27:33;19.19;48.05
78898;DHT22;68287;44.714;37.756;2023-02-28T19:28:35;19.17;48.05
78898;DHT22;68287;44.714;37.756;2023-02-28T19:29:37;19.19;48.04
78898;DHT22;68287;44.714;37.756;2023-02-28T19:30:38;19.17;48.08
78898;DHT22;68287;44.714;37.756;2023-02-28T19:31:40;19.17;48.13
78898;DHT22;68287;44.714;37.756;2023-02-28T19:32:42;19.17;48.15
78898;DHT22;68287;44.714;37.756;2023-02-28T19:33:44;19.17;48.11
78898;DHT22;68287;44.714;37.756;2023-02-28T19:34:46;19.17;48.14
78898;DHT22;68287;44.714;37.756;2023-02-28T19:35:48;19.19;48.23
78898;DHT22;68287;44.714;37.756;2023-02-28T19:36:49;19.20;48.24
78898;DHT22;68287;44.714;37.756;2023-02-28T19:37:51;19.23;48.29
78898;DHT22;68287;44.714;37.756;2023-02-28T19:38:53;19.24;48.26
78898;DHT22;68287;44.714;37.756;2023-02-28T19:39:54;19.23;48.32
78898;DHT22;68287;44.714;37.756;2023-02-28T19:41:05;19.24;48.28
78898;DHT22;68287;44.714;37.756;2023-02-28T19:42:12;19.26;48.35
78898;DHT22;68287;44.714;37.756;2023-02-28T19:43:14;19.26;48.32
78898;DHT22;68287;44.714;37.756;2023-02-28T19:44:16;19.27;48.15
78898;DHT22;68287;44.714;37.756;2023-02-28T19:45:17;19.26;48.12
78898;DHT22;68287;44.714;37.756;2023-02-28T19:46:19;19.23;48.31
78898;DHT22;68287;44.714;37.756;2023-02-28T19:47:20;19.23;48.18
78898;DHT22;68287;44.714;37.756;2023-02-28T19:48:23;19.22;48.09
78898;DHT22;68287;44.714;37.756;2023-02-28T19:49:26;19.19;48.13
78898;DHT22;68287;44.714;37.756;2023-02-28T19:50:27;19.19;48.23
78898;DHT22;68287;44.714;37.756;2023-02-28T19:51:29;19.19;48.07
78898;DHT22;68287;44.714;37.756;2023-02-28T19:52:31;19.19;47.95
78898;DHT22;68287;44.714;37.756;2023-02-28T19:53:34;19.19;47.98
78898;DHT22;68287;44.714;37.756;2023-02-28T19:54:36;19.14;47.95
78898;DHT22;68287;44.714;37.756;2023-02-28T19:55:37;19.16;47.99
78898;DHT22;68287;44.714;37.756;2023-02-28T19:56:39;19.12;48.06
78898;DHT22;68287;44.714;37.756;2023-02-28T19:57:42;19.10;48.04
78898;DHT22;68287;44.714;37.756;2023-02-28T19:58:43;19.09;48.00
78898;DHT22;68287;44.714;37.756;2023-02-28T19:59:45;19.05;48.06
78898;DHT22;68287;44.714;37.756;2023-02-28T20:00:47;19.06;48.10
78898;DHT22;68287;44.714;37.756;2023-02-28T20:01:49;19.05;48.03
78898;DHT22;68287;44.714;37.756;2023-02-28T20:02:51;19.06;48.11
78898;DHT22;68287;44.714;37.756;2023-02-28T20:03:52;19.05;48.11
78898;DHT22;68287;44.714;37.756;2023-02-28T20:04:54;19.05;48.12
78898;DHT22;68287;44.714;37.756;2023-02-28T20:05:59;19.00;48.14
78898;DHT22;68287;44.714;37.756;2023-02-28T20:07:01;19.02;48.22
78898;DHT22;68287;44.714;37.756;2023-02-28T20:08:03;18.99;48.26
78898;DHT22;68287;44.714;37.756;2023-02-28T20:09:04;19.02;48.28
78898;DHT22;68287;44.714;37.756;2023-02-28T20:10:06;19.03;48.03
78898;DHT22;68287;44.714;37.756;2023-02-28T20:11:12;19.00;48.13
78898;DHT22;68287;44.714;37.756;2023-02-28T20:12:15;18.99;48.21
78898;DHT22;68287;44.714;37.756;2023-02-28T20:13:18;19.02;48.38
78898;DHT22;68287;44.714;37.756;2023-02-28T20:14:19;19.03;48.37
78898;DHT22;68287;44.714;37.756;2023-02-28T20:15:22;19.07;48.40
78898;DHT22;68287;44.714;37.756;2023-02-28T20:16:23;19.09;48.40
78898;DHT22;68287;44.714;37.756;2023-02-28T20:17:29;19.12;48.36
78898;DHT22;68287;44.714;37.756;2023-02-28T20:18:32;19.14;48.42
78898;DHT22;68287;44.714;37.756;2023-02-28T20:19:33;19.19;48.48
78898;DHT22;68287;44.714;37.756;2023-02-28T20:20:35;19.20;48.41
78898;DHT22;68287;44.714;37.756;2023-02-28T20:21:37;19.26;48.51
78898;DHT22;68287;44.714;37.756;2023-02-28T20:22:41;19.28;48.45
78898;DHT22;68287;44.714;37.756;2023-02-28T20:23:44;19.28;48.46
78898;DHT22;68287;44.714;37.756;2023-02-28T20:24:47;19.28;48.47
78898;DHT22;68287;44.714;37.756;2023-02-28T20:25:48;19.30;48.43
78898;DHT22;68287;44.714;37.756;2023-02-28T20:26:52;19.31;48.41
78898;DHT22;68287;44.714;37.756;2023-02-28T20:27:53;19.30;48.35
78898;DHT22;68287;44.714;37.756;2023-02-28T20:28:55;19.31;48.33
78898;DHT22;68287;44.714;37.756;2023-02-28T20:29:57;19.28;48.37
78898;DHT22;68287;44.714;37.756;2023-02-28T20:30:58;19.33;48.39
78898;DHT22;68287;44.714;37.756;2023-02-28T20:32:01;19.35;48.42
78898;DHT22;68287;44.714;37.756;2023-02-28T20:33:03;19.34;48.49
78898;DHT22;68287;44.714;37.756;2023-02-28T20:34:04;19.33;48.51
78898;DHT22;68287;44.714;37.756;2023-02-28T20:35:06;19.33;48.48
78898;DHT22;68287;44.714;37.756;2023-02-28T20:36:11;19.34;48.51
78898;DHT22;68287;44.714;37.756;2023-02-28T20:37:13;19.35;48.51
78898;DHT22;68287;44.714;37.756;2023-02-28T20:38:15;19.33;48.49
78898;DHT22;68287;44.714;37.756;2023-02-28T20:39:18;19.34;48.53
78898;DHT22;68287;44.714;37.756;2023-02-28T20:40:19;19.34;48.55
78898;DHT22;68287;44.714;37.756;2023-02-28T20:41:21;19.34;48.52
78898;DHT22;68287;44.714;37.756;2023-02-28T20:42:23;19.34;48.52
78898;DHT22;68287;44.714;37.756;2023-02-28T20:43:24;19.34;48.56
78898;DHT22;68287;44.714;37.756;2023-02-28T20:44:26;19.37;48.62
78898;DHT22;68287;44.714;37.756;2023-02-28T20:45:28;19.33;48.62
78898;DHT22;68287;44.714;37.756;2023-02-28T20:46:30;19.34;48.58
78898;DHT22;68287;44.714;37.756;2023-02-28T20:47:31;19.34;48.58
78898;DHT22;68287;44.714;37.756;2023-02-28T20:48:33;19.34;48.58
78898;DHT22;68287;44.714;37.756;2023-02-28T20:49:36;19.34;48.57
78898;DHT22;68287;44.714;37.756;2023-02-28T20:50:38;19.37;48.63
78898;DHT22;68287;44.714;37.756;2023-02-28T20:51:39;19.35;48.64
78898;DHT22;68287;44.714;37.756;2023-02-28T20:52:42;19.37;48.62
78898;DHT22;68287;44.714;37.756;2023-02-28T20:53:47;19.37;48.65
78898;DHT22;68287;44.714;37.756;2023-02-28T20:54:48;19.37;48.64
78898;DHT22;68287;44.714;37.756;2023-02-28T20:56:59;19.35;48.68
78898;DHT22;68287;44.714;37.756;2023-02-28T20:58:00;19.34;48.68
78898;DHT22;68287;44.714;37.756;2023-02-28T20:59:02;19.35;48.68
78898;DHT22;68287;44.714;37.756;2023-02-28T21:00:05;19.37;48.69
78898;DHT22;68287;44.714;37.756;2023-02-28T21:01:16;19.37;48.70
78898;DHT22;68287;44.714;37.756;2023-02-28T21:02:18;19.37;48.73
78898;DHT22;68287;44.714;37.756;2023-02-28T21:03:21;19.35;48.72
78898;DHT22;68287;44.714;37.756;2023-02-28T21:04:22;19.37;48.71
78898;DHT22;68287;44.714;37.756;2023-02-28T21:05:24;19.37;48.74
78898;DHT22;68287;44.714;37.756;2023-02-28T21:06:28;19.35;48.77
78898;DHT22;68287;44.714;37.756;2023-02-28T21:07:30;19.37;48.74
78898;DHT22;68287;44.714;37.756;2023-02-28T21:08:33;19.38;48.80
78898;DHT22;68287;44.714;37.756;2023-02-28T21:09:35;19.37;48.82
78898;DHT22;68287;44.714;37.756;2023-02-28T21:10:36;19.35;48.80
78898;DHT22;68287;44.714;37.756;2023-02-28T21:11:38;19.35;48.80
78898;DHT22;68287;44.714;37.756;2023-02-28T21:12:40;19.35;48.78
78898;DHT22;68287;44.714;37.756;2023-02-28T21:13:42;19.38;48.83
78898;DHT22;68287;44.714;37.756;2023-02-28T21:14:44;19.37;48.80
78898;DHT22;68287;44.714;37.756;2023-02-28T21:15:46;19.37;48.87
78898;DHT22;68287;44.714;37.756;2023-02-28T21:16:47;19.37;48.88
78898;DHT22;68287;44.714;37.756;2023-02-28T21:17:49;19.35;48.86
78898;DHT22;68287;44.714;37.756;2023-02-28T21:18:51;19.37;48.86
78898;DHT22;68287;44.714;37.756;2023-02-28T21:19:55;19.38;48.89
78898;DHT22;68287;44.714;37.756;2023-02-28T21:21:01;19.37;48.92
78898;DHT22;68287;44.714;37.756;2023-02-28T21:22:03;19.38;48.91
78898;DHT22;68287;44.714;37.756;2023-02-28T21:23:04;19.35;48.91
78898;DHT22;68287;44.714;37.756;2023-02-28T21:24:06;19.37;48.93
78898;DHT22;68287;44.714;37.756;2023-02-28T21:25:08;19.37;48.97
78898;DHT22;68287;44.714;37.756;2023-02-28T21:26:12;19.35;48.93
78898;DHT22;68287;44.714;37.756;2023-02-28T21:27:14;19.38;48.89
78898;DHT22;68287;44.714;37.756;2023-02-28T21:28:16;19.37;48.93
78898;DHT22;68287;44.714;37.756;2023-02-28T21:29:17;19.37;48.97
78898;DHT22;68287;44.714;37.756;2023-02-28T21:30:19;19.37;48.94
78898;DHT22;68287;44.714;37.756;2023-02-28T21:31:22;19.35;48.97
78898;DHT22;68287;44.714;37.756;2023-02-28T21:32:24;19.38;48.95
78898;DHT22;68287;44.714;37.756;2023-02-28T21:33:25;19.38;48.98
78898;DHT22;68287;44.714;37.756;2023-02-28T21:34:27;19.37;48.98
78898;DHT22;68287;44.714;37.756;2023-02-28T21:35:28;19.38;48.99
78898;DHT22;68287;44.714;37.756;2023-02-28T21:36:35;19.38;49.03
78898;DHT22;68287;44.714;37.756;2023-02-28T21:37:37;19.37;49.04
78898;DHT22;68287;44.714;37.756;2023-02-28T21:38:39;19.37;48.99
78898;DHT22;68287;44.714;37.756;2023-02-28T21:39:41;19.35;49.07
78898;DHT22;68287;44.714;37.756;2023-02-28T21:40:42;19.35;49.06
78898;DHT22;68287;44.714;37.756;2023-02-28T21:41:44;19.38;49.05
78898;DHT22;68287;44.714;37.756;2023-02-28T21:42:46;19.38;49.07
78898;DHT22;68287;44.714;37.756;2023-02-28T21:43:47;19.37;49.09
78898;DHT22;68287;44.714;37.756;2023-02-28T21:44:49;19.38;49.07
78898;DHT22;68287;44.714;37.756;2023-02-28T21:45:50;19.37;49.13
78898;DHT22;68287;44.714;37.756;2023-02-28T21:46:52;19.40;49.13
78898;DHT22;68287;44.714;37.756;2023-02-28T21:47:58;19.38;49.18
78898;DHT22;68287;44.714;37.756;2023-02-28T21:48:59;19.38;49.29
78898;DHT22;68287;44.714;37.756;2023-02-28T21:50:01;19.41;49.22
78898;DHT22;68287;44.714;37.756;2023-02-28T21:51:11;19.41;49.27
78898;DHT22;68287;44.714;37.756;2023-02-28T21:52:13;19.40;49.24
78898;DHT22;68287;44.714;37.756;2023-02-28T21:53:14;19.38;49.24
78898;DHT22;68287;44.714;37.756;2023-02-28T21:54:16;19.41;49.28
78898;DHT22;68287;44.714;37.756;2023-02-28T21:55:18;19.41;49.28
78898;DHT22;68287;44.714;37.756;2023-02-28T21:56:24;19.40;49.33
78898;DHT22;68287;44.714;37.756;2023-02-28T21:57:26;19.41;49.32
78898;DHT22;68287;44.714;37.756;2023-02-28T21:58:28;19.38;49.32
78898;DHT22;68287;44.714;37.756;2023-02-28T21:59:29;19.40;49.29
78898;DHT22;68287;44.714;37.756;2023-02-28T22:00:31;19.38;49.33
78898;DHT22;68287;44.714;37.756;2023-02-28T22:01:38;19.40;49.32
78898;DHT22;68287;44.714;37.756;2023-02-28T22:02:40;19.40;49.33
78898;DHT22;68287;44.714;37.756;2023-02-28T22:03:43;19.38;49.34
78898;DHT22;68287;44.714;37.756;2023-02-28T22:04:44;19.38;49.37
78898;DHT22;68287;44.714;37.756;2023-02-28T22:05:46;19.43;49.47
78898;DHT22;68287;44.714;37.756;2023-02-28T22:06:53;19.38;49.41
78898;DHT22;68287;44.714;37.756;2023-02-28T22:07:58;19.40;49.47
78898;DHT22;68287;44.714;37.756;2023-02-28T22:09:02;19.38;49.47
78898;DHT22;68287;44.714;37.756;2023-02-28T22:10:06;19.40;49.40
78898;DHT22;68287;44.714;37.756;2023-02-28T22:11:09;19.40;49.45
78898;DHT22;68287;44.714;37.756;2023-02-28T22:12:11;19.41;49.45
78898;DHT22;68287;44.714;37.756;2023-02-28T22:13:12;19.41;49.50
78898;DHT22;68287;44.714;37.756;2023-02-28T22:14:15;19.40;49.48
78898;DHT22;68287;44.714;37.756;2023-02-28T22:15:17;19.40;49.50
78898;DHT22;68287;44.714;37.756;2023-02-28T22:16:19;19.40;49.50
78898;DHT22;68287;44.714;37.756;2023-02-28T22:17:21;19.40;49.50
78898;DHT22;68287;44.714;37.756;2023-02-28T22:18:23;19.38;49.54
78898;DHT22;68287;44.714;37.756;2023-02-28T22:19:24;19.40;49.53
78898;DHT22;68287;44.714;37.756;2023-02-28T22:20:26;19.38;49.54
78898;DHT22;68287;44.714;37.756;2023-02-28T22:21:28;19.38;49.61
78898;DHT22;68287;44.714;37.756;2023-02-28T22:22:29;19.38;49.55
78898;DHT22;68287;44.714;37.756;2023-02-28T22:23:31;19.37;49.62
78898;DHT22;68287;44.714;37.756;2023-02-28T22:24:33;19.41;49.61
78898;DHT22;68287;44.714;37.756;2023-02-28T22:25:36;19.38;49.63
78898;DHT22;68287;44.714;37.756;2023-02-28T22:26:38;19.38;49.64
78898;DHT22;68287;44.714;37.756;2023-02-28T22:27:39;19.40;49.62
78898;DHT22;68287;44.714;37.756;2023-02-28T22:28:41;19.40;49.62
78898;DHT22;68287;44.714;37.756;2023-02-28T22:29:42;19.40;49.64
78898;DHT22;68287;44.714;37.756;2023-02-28T22:30:44;19.41;49.63
78898;DHT22;68287;44.714;37.756;2023-02-28T22:31:45;19.38;49.60
78898;DHT22;68287;44.714;37.756;2023-02-28T22:32:47;19.38;49.61
78898;DHT22;68287;44.714;37.756;2023-02-28T22:33:50;19.40;49.63
78898;DHT22;68287;44.714;37.756;2023-02-28T22:34:52;19.41;49.65
78898;DHT22;68287;44.714;37.756;2023-02-28T22:35:53;19.41;49.69
78898;DHT22;68287;44.714;37.756;2023-02-28T22:36:55;19.40;49.66
78898;DHT22;68287;44.714;37.756;2023-02-28T22:37:58;19.38;49.68
78898;DHT22;68287;44.714;37.756;2023-02-28T22:39:00;19.40;49.69
78898;DHT22;68287;44.714;37.756;2023-02-28T22:40:01;19.40;49.71
78898;DHT22;68287;44.714;37.756;2023-02-28T22:41:04;19.40;49.69
78898;DHT22;68287;44.714;37.756;2023-02-28T22:42:06;19.43;49.74
78898;DHT22;68287;44.714;37.756;2023-02-28T22:43:08;19.38;49.72
78898;DHT22;68287;44.714;37.756;2023-02-28T22:44:09;19.37;49.74
78898;DHT22;68287;44.714;37.756;2023-02-28T22:45:11;19.38;49.76
78898;DHT22;68287;44.714;37.756;2023-02-28T22:46:12;19.38;49.78
78898;DHT22;68287;44.714;37.756;2023-02-28T22:47:14;19.35;49.80
78898;DHT22;68287;44.714;37.756;2023-02-28T22:48:15;19.37;49.75
78898;DHT22;68287;44.714;37.756;2023-02-28T22:49:17;19.38;49.79
78898;DHT22;68287;44.714;37.756;2023-02-28T22:50:18;19.37;49.79
78898;DHT22;68287;44.714;37.756;2023-02-28T22:51:22;19.37;49.80